Portada
METAR-TAF:

METAR-TAF

Aeropuertos :

Aeropuerto de Valencia

Valencia, España

latitud: 39-30N, longitud: 000-28W, altitud: 69 m

Observación

El informe se hizo hace 19 minutos, a las 13:30 UTC
Viento 14 kt del oeste con ráfagas de 24 kt
Temperatura 19°C
Humedad 37%
Presión 1028 hPa
Visibilidad 10 km o más
Escasas nubes a una altura de 3500 ft

METAR: LEVC 171330Z 28014G24KT 9999 FEW035 19/04 Q1028 NOSIG

Hora: 14:49 (13:49 UTC)

Pronóstico

El informe se hizo hace 2 horas y 49 minutos, a las 11:00 UTC
Pronóstico válido del 17 a las 12 UTC al 18 a las 12 UTC
Viento 8 kt del oeste
Visibilidad 10 km o más
sin nubes por debajo de 1500 m y sin presencia de cumulonimbus.
Probabilidad 40% :
Temporalmente
del 17 a las 12 UTC al 17 a las 17 UTC
Viento 15 kt del oeste con ráfagas de 25 kt

TAF: LEVC 171100Z 1712/1812 26008KT CAVOK TX20/1713Z TN05/1806Z PROB40 TEMPO 1712/1717 27015G25KT

Observaciones y pronósticos meteorológicos de más de 4000 aeropuertos (mensajes METAR y TAF).

Los puntos amarillos y rojos representan las estaciones disponibles.

Ponga el ratón en el punto deseado para ver el nombre de la estación.

Haga clic para ver las observaciones y los pronósticos meteorológicos.

Para cambiar el mapa : haga clic en los botones verdes con una cruz de color negro para hacer un zoom, en el botón verde con un guión para alejar o en las flechas verdes para mapas adyacentes.


METAR-TAF: